Flight Track Log - Related Links

Times and Time Zones

All times are in EDT time to prevent confusion due to time zone crossing. See the EJA941 flight status page for this flight to view local times or setup timezone preferences in your user account.

Time Position Orientation Groundspeed Altitude Reporting Facility
EDT Latitude Longitude Course Direction KTS MPH feet Rate Location/Type
Thu 03:53:26 PM 38.9333 -77.5667 255° West 219 252 4,200  Level Potomac TRACON
Thu 03:54:49 PM 38.9097 -77.6831 255° West 241 277 5,000 1,049 Climbing Washington Center
Thu 03:55:49 PM 38.8689 -77.7592 235° Southwest 263 303 6,700 2,100 Climbing Washington Center
Thu 03:56:49 PM 38.8278 -77.8433 238° Southwest 282 325 9,200 2,085 Climbing Washington Center
Thu 03:57:47 PM 38.8339 -77.9528 274° West 289 333 10,800 1,412 Climbing Washington Center
Thu 03:58:48 PM 38.8439 -78.0758 276° West 309 356 12,000 1,475 Climbing Washington Center
Thu 03:59:49 PM 38.8539 -78.2042 276° West 345 397 13,800 1,664 Climbing Washington Center
Thu 04:00:47 PM 38.8531 -78.3347 270° West 362 417 15,300 1,361 Climbing Washington Center
Thu 04:01:48 PM 38.8519 -78.4653 269° West 368 423 16,500 1,230 Climbing Washington Center
Thu 04:02:49 PM 38.8508 -78.6011 269° West 375 432 17,800 1,180 Climbing Washington Center
Thu 04:03:50 PM 38.8494 -78.7344 269° West 380 437 18,900 1,169 Climbing Washington Center
Thu 04:04:47 PM 38.8478 -78.8728 269° West 385 443 20,100 1,179 Climbing Washington Center
Thu 04:05:47 PM 38.8458 -79.0142 269° West 385 443 21,200 1,190 Climbing Washington Center
Thu 04:06:48 PM 38.8439 -79.1553 269° West 395 455 22,500 1,339 Climbing Washington Center
Thu 04:07:48 PM 38.8417 -79.3017 269° West 402 463 23,900 1,339 Climbing Washington Center
Thu 04:08:49 PM 38.8392 -79.4456 269° West 409 471 25,200 1,412 Climbing Washington Center
Thu 04:09:47 PM 38.8339 -79.6025 268° West 426 490 26,700 1,311 Climbing Washington Center
Thu 04:10:48 PM 38.8308 -79.7569 269° West 438 504 27,800 976 Climbing Washington Center
Thu 04:11:50 PM 38.8281 -79.8953 269° West 438 504 28,700 957 Climbing Washington Center
Thu 04:12:22 PM 38.8208 -79.9956 265° West 440 506 29,300 1,085 Climbing Indianapolis Center
Thu 04:13:24 PM 38.8169 -80.1564 268° West 451 519 30,400 1,355 Climbing Indianapolis Center
Thu 04:14:26 PM 38.8133 -80.3181 268° West 453 521 32,100 1,500 Climbing Indianapolis Center
Thu 04:15:28 PM 38.8086 -80.4767 268° West 446 513 33,500 1,597 Climbing Indianapolis Center
Thu 04:16:30 PM 38.8036 -80.6356 268° West 446 513 35,400 1,790 Climbing Indianapolis Center
Thu 04:17:32 PM 38.7994 -80.7922 268° West 442 509 37,200 1,776 Climbing Indianapolis Center
Thu 04:18:35 PM 38.7939 -80.9767 268° West 432 497 39,100 1,344 Climbing Indianapolis Center
Thu 04:19:37 PM 38.7886 -81.1325 268° West 437 503 40,000 435 Climbing Indianapolis Center
Thu 04:20:39 PM 38.7839 -81.2914 268° West 447 514 40,000  Level Indianapolis Center
Thu 04:21:41 PM 38.7764 -81.4606 267° West 457 526 40,000  Level Indianapolis Center
Thu 04:22:43 PM 38.7708 -81.6306 268° West 473 544 40,000  Level Indianapolis Center
Thu 04:23:45 PM 38.7636 -81.8161 267° West 474 545 40,000  Level Indianapolis Center
Thu 04:24:47 PM 38.7564 -81.9839 267° West 474 545 40,000  Level Indianapolis Center
Thu 04:25:49 PM 38.7497 -82.1528 267° West 475 547 40,000  Level Indianapolis Center
Thu 04:26:51 PM 38.7433 -82.3219 267° West 476 548 40,000  Level Indianapolis Center
Thu 04:27:53 PM 38.7358 -82.5233 267° West 473 544 40,000  Level Indianapolis Center
Thu 04:28:55 PM 38.7283 -82.6925 267° West 476 548 40,000  Level Indianapolis Center
Thu 04:29:57 PM 38.7214 -82.8603 267° West 473 544 40,000  Level Indianapolis Center
Thu 04:30:59 PM 38.7133 -83.0292 267° West 475 547 40,000  Level Indianapolis Center
Thu 04:32:01 PM 38.7056 -83.2133 267° West 470 541 40,000  Level Indianapolis Center
Thu 04:33:03 PM 38.6969 -83.3833 266° West 471 542 40,000  Level Indianapolis Center
Thu 04:34:05 PM 38.6881 -83.5525 266° West 471 542 40,000  Level Indianapolis Center
Thu 04:35:07 PM 38.6797 -83.7217 266° West 472 543 40,000  Level Indianapolis Center
Thu 04:36:09 PM 38.6717 -83.8908 267° West 471 542 40,000  Level Indianapolis Center
Thu 04:37:11 PM 38.6622 -84.0617 266° West 477 549 40,000  Level Indianapolis Center
Thu 04:38:13 PM 38.6528 -84.2328 266° West 475 547 40,000  Level Indianapolis Center
Thu 04:39:16 PM 38.6542 -84.4061 271° West 484 557 40,000  Level Indianapolis Center
Thu 04:40:18 PM 38.6658 -84.6069 274° West 480 552 40,000  Level Indianapolis Center
Thu 04:41:20 PM 38.6764 -84.7783 275° West 483 556 40,000  Level Indianapolis Center
Thu 04:42:22 PM 38.6872 -84.9494 275° West 483 556 40,000  Level Indianapolis Center
Thu 04:43:24 PM 38.6958 -85.1206 274° West 483 556 40,000  Level Indianapolis Center
Thu 04:44:26 PM 38.7058 -85.2925 274° West 484 557 40,000  Level Indianapolis Center
Thu 04:45:28 PM 38.7144 -85.4647 274° West 485 558 40,000  Level Indianapolis Center
Thu 04:46:30 PM 38.7225 -85.6383 273° West 487 560 40,000  Level Indianapolis Center
Thu 04:47:32 PM 38.7331 -85.8461 274° West 486 559 40,000  Level Indianapolis Center
Thu 04:48:34 PM 38.7400 -85.9981 273° West 487 560 40,000  Level Indianapolis Center
Thu 04:49:36 PM 38.7494 -86.2058 273° West 488 562 40,000  Level Indianapolis Center
Thu 04:50:38 PM 38.7572 -86.3797 273° West 489 563 40,000  Level Indianapolis Center
Thu 04:51:40 PM 38.7642 -86.5525 273° West 489 563 40,000  Level Indianapolis Center
Thu 04:52:42 PM 38.7711 -86.7261 273° West 490 564 40,000  Level Indianapolis Center
Thu 04:53:44 PM 38.7783 -86.9003 273° West 492 566 40,000  Level Indianapolis Center
Thu 04:54:46 PM 38.7858 -87.1108 273° West 495 570 40,000  Level Indianapolis Center
Thu 04:55:48 PM 38.7922 -87.2856 273° West 494 568 40,000  Level Indianapolis Center
Thu 04:56:50 PM 38.7983 -87.4600 273° West 492 566 40,000  Level Indianapolis Center
Thu 04:57:52 PM 38.8042 -87.6331 273° West 491 565 40,000  Level Indianapolis Center
Thu 04:58:55 PM 38.8086 -87.8103 272° West 495 570 40,000  Level Indianapolis Center
Thu 04:59:57 PM 38.8144 -87.9864 272° West 495 570 40,000  Level Indianapolis Center
Thu 05:00:41 PM 38.8167 -88.1292 271° West 494 568 40,000  Level Kansas City Center
Thu 05:01:43 PM 38.8211 -88.3039 272° West 491 565 40,000  Level Kansas City Center
Thu 05:02:45 PM 38.8267 -88.4789 272° West 491 565 40,000  Level Kansas City Center
Thu 05:03:48 PM 38.8283 -88.6622 271° West 489 563 40,000  Level Kansas City Center
Thu 05:04:50 PM 38.8336 -88.8350 272° West 486 559 40,000  Level Kansas City Center
Thu 05:05:52 PM 38.8392 -89.0425 272° West 487 560 40,000  Level Kansas City Center
Thu 05:06:54 PM 38.8428 -89.2161 272° West 489 563 40,000  Level Kansas City Center
Thu 05:07:56 PM 38.8472 -89.3917 272° West 492 566 40,000  Level Kansas City Center
Thu 05:08:58 PM 38.8506 -89.5661 271° West 493 567 40,000  Level Kansas City Center
Thu 05:10:00 PM 38.8531 -89.7411 271° West 493 567 40,000  Level Kansas City Center
Thu 05:11:02 PM 38.8553 -89.9158 271° West 493 567 40,000  Level Kansas City Center
Thu 05:12:04 PM 38.8592 -90.1214 271° West 494 568 40,000  Level Kansas City Center
Thu 05:13:06 PM 38.8619 -90.2983 271° West 496 571 40,000  Level Kansas City Center
Thu 05:14:08 PM 38.8619 -90.4742 270° West 495 570 40,000  Level Kansas City Center
Thu 05:15:10 PM 38.8394 -90.6519 261° West 500 575 40,000  Level Kansas City Center
Thu 05:16:12 PM 38.8133 -90.8547 261° West 500 575 40,000  Level Kansas City Center
Thu 05:17:14 PM 38.7908 -91.0275 261° West 497 572 40,000  Level Kansas City Center
Thu 05:18:16 PM 38.7681 -91.2006 260° West 497 572 40,000  Level Kansas City Center
Thu 05:19:18 PM 38.7453 -91.3753 261° West 498 573 40,000  Level Kansas City Center
Thu 05:20:20 PM 38.7214 -91.5486 260° West 498 573 40,000  Level Kansas City Center
Thu 05:21:22 PM 38.6953 -91.7350 260° West 499 574 40,000  Level Kansas City Center
Thu 05:22:24 PM 38.6653 -91.9422 260° West 496 571 40,000  Level Kansas City Center
Thu 05:23:26 PM 38.6394 -92.1139 259° West 495 570 40,000  Level Kansas City Center
Thu 05:24:28 PM 38.6153 -92.2867 260° West 496 571 40,000  Level Kansas City Center
Thu 05:25:30 PM 38.5892 -92.4567 259° West 495 570 40,000  Level Kansas City Center
Thu 05:26:32 PM 38.5639 -92.6244 259° West 489 563 40,000  Level Kansas City Center
Thu 05:27:34 PM 38.5386 -92.7953 259° West 488 562 40,000  Level Kansas City Center
Thu 05:28:36 PM 38.5075 -93.0000 259° West 491 565 40,000  Level Kansas City Center
Thu 05:29:38 PM 38.4819 -93.1714 259° West 493 567 40,000  Level Kansas City Center
Thu 05:30:40 PM 38.4542 -93.3433 258° West 495 570 40,000  Level Kansas City Center
Thu 05:31:43 PM 38.4283 -93.5139 259° West 493 567 40,000  Level Kansas City Center
Thu 05:32:45 PM 38.4028 -93.6858 259° West 494 568 40,000  Level Kansas City Center
Thu 05:33:47 PM 38.3700 -93.8925 259° West 495 570 40,000  Level Kansas City Center
Thu 05:34:49 PM 38.3422 -94.0644 258° West 497 572 40,000  Level Kansas City Center
Thu 05:35:51 PM 38.3158 -94.2339 259° West 499 574 40,000  Level Kansas City Center
Thu 05:36:53 PM 38.2881 -94.3994 258° West 500 575 40,000  Level Kansas City Center
Thu 05:37:55 PM 38.2686 -94.5953 263° West 500 575 40,000  Level Kansas City Center
Thu 05:38:57 PM 38.2642 -94.7631 268° West 499 574 40,000  Level Kansas City Center
Thu 05:39:59 PM 38.2572 -94.9608 268° West 498 573 40,000  Level Kansas City Center
Thu 05:41:01 PM 38.2519 -95.1286 268° West 497 572 40,000  Level Kansas City Center
Thu 05:42:03 PM 38.2439 -95.3239 267° West 495 570 40,000  Level Kansas City Center
Thu 05:43:05 PM 38.2389 -95.4919 268° West 495 570 40,000  Level Kansas City Center
Thu 05:44:07 PM 38.2308 -95.6864 267° West 491 565 40,000  Level Kansas City Center
Thu 05:45:09 PM 38.2239 -95.8522 267° West 491 565 40,000  Level Kansas City Center
Thu 05:46:11 PM 38.2172 -96.0189 267° West 491 565 40,000  Level Kansas City Center
Thu 05:47:14 PM 38.2083 -96.2131 267° West 491 565 40,000  Level Kansas City Center
Thu 05:48:16 PM 38.2006 -96.3792 267° West 491 565 40,000  Level Kansas City Center
Thu 05:49:18 PM 38.1917 -96.5733 267° West 496 571 40,000  Level Kansas City Center
Thu 05:50:20 PM 38.1833 -96.7467 267° West 493 567 40,000  Level Kansas City Center
Thu 05:51:22 PM 38.1742 -96.9200 266° West 492 566 40,000  Level Kansas City Center
Thu 05:52:24 PM 38.1661 -97.0928 267° West 492 566 40,000  Level Kansas City Center
Thu 05:53:26 PM 38.1567 -97.2647 266° West 491 565 40,000  Level Kansas City Center
Thu 05:54:28 PM 38.1453 -97.4700 266° West 488 562 40,000  Level Kansas City Center
Thu 05:55:30 PM 38.1358 -97.6378 266° West 489 563 40,000  Level Kansas City Center
Thu 05:56:32 PM 38.1253 -97.8283 266° West 490 564 40,000  Level Kansas City Center
Thu 05:57:34 PM 38.1156 -97.9989 266° West 488 562 40,000  Level Kansas City Center
Thu 05:58:36 PM 38.1050 -98.1794 266° West 485 558 40,000  Level Kansas City Center
Thu 05:59:38 PM 38.0947 -98.3467 266° West 481 554 40,000  Level Kansas City Center
Thu 06:00:40 PM 38.0842 -98.5153 266° West 481 554 40,000  Level Kansas City Center
Thu 06:01:42 PM 38.0736 -98.6850 266° West 483 556 40,000  Level Kansas City Center
Thu 06:02:44 PM 38.0617 -98.8544 265° West 483 556 40,000  Level Kansas City Center
Thu 06:03:46 PM 38.0503 -99.0236 265° West 483 556 40,000  Level Kansas City Center
Thu 06:04:48 PM 38.0372 -99.2253 265° West 480 552 40,000  Level Kansas City Center
Thu 06:05:50 PM 38.0256 -99.3931 265° West 478 550 40,000  Level Kansas City Center
Thu 06:06:52 PM 38.0125 -99.5681 265° West 480 552 40,000  Level Kansas City Center
Thu 06:07:54 PM 38.0006 -99.7283 265° West 479 551 40,000  Level Kansas City Center
Thu 06:08:56 PM 37.9858 -99.9169 264° West 481 554 40,000  Level Kansas City Center
Thu 06:09:58 PM 37.9733 -100.0789 264° West 483 556 40,000  Level Kansas City Center
Thu 06:11:00 PM 37.9578 -100.2672 264° West 483 556 40,000  Level Kansas City Center
Thu 06:12:02 PM 37.9447 -100.4292 264° West 484 557 40,000 387 Level Kansas City Center
Thu 06:13:04 PM 37.9294 -100.6161 264° West 481 554 40,800 774 Climbing Kansas City Center
Thu 06:14:06 PM 37.9269 -100.7742 269° West 477 549 41,600 774 Climbing Kansas City Center
Thu 06:15:08 PM 37.9531 -100.9550 280° West 473 544 42,400 672 Climbing Kansas City Center
Thu 06:16:11 PM 37.9811 -101.1081 283° West 472 543 43,000 288 Climbing Kansas City Center
Thu 06:17:13 PM 38.0233 -101.2844 287° West 471 542 43,000  Level Kansas City Center
Thu 06:18:15 PM 38.0581 -101.4367 286° West 471 542 43,000  Level Kansas City Center
Thu 06:19:17 PM 38.0978 -101.6139 286° West 469 540 43,000  Level Kansas City Center
Thu 06:20:18 PM 38.1331 -101.7658 286° West 470 541 43,000 -49 Level Kansas City Center
Thu 06:21:20 PM 38.1728 -101.9436 286° West 470 541 42,900 -726 Descending Kansas City Center
Thu 06:22:22 PM 38.2067 -102.0992 286° West 474 545 41,500 -2,000 Descending Kansas City Center
Thu 06:23:44 PM 38.2594 -102.3358 286° West 485 558 38,100 -1,458 Descending Denver Center
Thu 06:24:46 PM 38.2939 -102.4914 286° West 478 550 38,000 -726 Descending Denver Center
Thu 06:25:48 PM 38.3339 -102.6781 285° West 490 564 36,600 -1,500 Descending Denver Center
Thu 06:26:50 PM 38.3683 -102.8392 285° West 494 568 34,900 -2,160 Descending Denver Center
Thu 06:27:53 PM 38.4097 -103.0278 286° West 495 570 32,100 -2,784 Descending Denver Center
Thu 06:28:55 PM 38.4419 -103.1881 284° West 489 563 29,100 -2,468 Descending Denver Center
Thu 06:29:57 PM 38.4769 -103.3517 285° West 431 496 27,000 -1,016 Descending Denver Center
Thu 06:30:59 PM 38.5047 -103.4850 285° West 387 445 27,000  Level Denver Center
Thu 06:32:01 PM 38.5381 -103.6125 289° West 397 457 27,000 -871 Level Denver Center
Thu 06:33:03 PM 38.6342 -103.7172 320° Northwest 414 476 25,200 -1,839 Descending Denver Center
Thu 06:34:05 PM 38.7211 -103.8008 323° Northwest 409 471 23,200 -2,129 Descending Denver Center
Thu 06:35:07 PM 38.8200 -103.8944 324° Northwest 398 458 20,800 -2,274 Descending Denver Center
Thu 06:36:09 PM 38.9081 -103.9769 324° Northwest 387 445 18,500 -2,081 Descending Denver Center
Thu 06:37:11 PM 38.9883 -104.0544 323° Northwest 369 425 16,500 -1,210 Descending Denver Center
Thu 06:38:13 PM 39.0381 -104.1569 302° West 341 392 16,000 -242 Descending Denver Center
Thu 06:39:15 PM 39.0656 -104.2775 286° West 319 367 16,000 -435 Level Denver Center
Thu 06:40:17 PM 39.0881 -104.3775 286° West 310 357 15,100 -1,296 Descending Denver Center
Thu 06:41:20 PM 39.1464 -104.4772 307° West 327 376 13,300 -1,632 Descending Denver Center
Thu 06:42:22 PM 39.2075 -104.5519 317° Northwest 305 351 11,700 -1,597 Descending Denver Center
Thu 06:43:24 PM 39.2686 -104.6228 318° Northwest 297 342 10,000 -1,306 Descending Denver Center
Thu 06:44:26 PM 39.3333 -104.7022 316° Northwest 299 344 9,000 -629 Descending Denver Center
Thu 06:45:28 PM 39.3869 -104.7658 317° Northwest 268 308 8,700 -484 Descending Denver Center
Thu 06:46:30 PM 39.4406 -104.8325 316° Northwest 247 284 8,000 -726 Descending Denver Center
Thu 06:47:32 PM 39.4867 -104.8461 347° North 174 200 7,200 -726 Descending Denver Center
Thu 06:48:34 PM 39.5286 -104.8483 358° North 143 165 6,500 -629 Descending Denver Center
Thu 06:49:36 PM 39.5667 -104.8511 357° North 136 157 5,900 -581 Descending Denver Center
Thu 06:51:00 PM 39.5701 -104.8493 126° Southeast  Level Estimated
Thu 06:58:00 PM 39.5701 -104.8493 126° Southeast  Level Estimated

Login

Don't have an account? Register now (free) for customized features, flight alerts, and more!